createdAt,value
2018-05-02T00:01:35.374Z,99942.48
2018-05-02T00:04:02.841Z,99946.28
2018-05-02T00:06:30.286Z,99940.20
2018-05-02T00:08:57.757Z,99940.80
2018-05-02T00:11:25.207Z,99944.91
2018-05-02T00:13:52.694Z,99946.97
2018-05-02T00:16:20.141Z,99942.84
2018-05-02T00:18:47.618Z,99947.77
2018-05-02T00:21:15.073Z,99939.87
2018-05-02T00:23:42.550Z,99938.92
2018-05-02T00:26:09.996Z,99939.00
2018-05-02T00:28:37.481Z,99937.69
2018-05-02T00:31:04.929Z,99935.00
2018-05-02T00:33:32.405Z,99935.48
2018-05-02T00:35:59.854Z,99935.17
2018-05-02T00:38:27.336Z,99936.33
2018-05-02T00:40:54.800Z,99940.78
2018-05-02T00:43:22.293Z,99941.72
2018-05-02T00:45:49.749Z,99935.91
2018-05-02T00:48:17.247Z,99938.23
2018-05-02T00:50:44.698Z,99940.56
2018-05-02T00:53:12.180Z,99927.41
2018-05-02T00:55:39.645Z,99927.97
2018-05-02T00:58:07.119Z,99923.34
2018-05-02T01:00:34.573Z,99923.16
2018-05-02T01:03:02.045Z,99912.52
2018-05-02T01:05:29.507Z,99920.67
2018-05-02T01:07:56.993Z,99925.58
2018-05-02T01:10:24.444Z,99930.67
2018-05-02T01:12:51.926Z,99923.47
2018-05-02T01:15:19.385Z,99924.80
2018-05-02T01:17:46.858Z,99916.96
2018-05-02T01:20:14.309Z,99917.70
2018-05-02T01:22:41.794Z,99918.94
2018-05-02T01:25:09.242Z,99913.70
2018-05-02T01:27:36.704Z,99917.92
2018-05-02T01:30:04.183Z,99916.58
2018-05-02T01:32:31.638Z,99913.61
2018-05-02T01:34:59.118Z,99912.50
2018-05-02T01:37:26.570Z,99909.50
2018-05-02T01:39:54.041Z,99912.36
2018-05-02T01:42:21.563Z,99908.16
2018-05-02T01:44:48.991Z,99907.97
2018-05-02T01:47:16.445Z,99901.07
2018-05-02T01:49:43.917Z,99904.88
2018-05-02T01:52:11.361Z,99911.92
2018-05-02T01:54:38.838Z,99909.37
2018-05-02T01:57:06.285Z,99911.03
2018-05-02T01:59:33.763Z,99907.34
2018-05-02T02:02:01.225Z,99897.77
2018-05-02T02:04:28.710Z,99897.22
2018-05-02T02:06:56.164Z,99889.92
2018-05-02T02:09:23.658Z,99890.56
2018-05-02T02:11:51.114Z,99888.94
2018-05-02T02:14:18.594Z,99886.59
2018-05-02T02:16:46.050Z,99877.63
2018-05-02T02:19:13.540Z,99879.66
2018-05-02T02:21:40.994Z,99878.36
2018-05-02T02:24:08.475Z,99876.93
2018-05-02T02:26:35.934Z,99880.03
2018-05-02T02:29:03.406Z,99883.36
2018-05-02T02:31:30.861Z,99880.94
2018-05-02T02:33:58.460Z,99881.59
2018-05-02T02:36:25.812Z,99877.98
2018-05-02T02:38:53.290Z,99879.64
2018-05-02T02:41:20.744Z,99883.94
2018-05-02T02:43:48.229Z,99882.06
2018-05-02T02:46:15.710Z,99886.57
2018-05-02T02:48:43.186Z,99881.27
2018-05-02T02:51:10.640Z,99884.96
2018-05-02T02:53:38.113Z,99883.72
2018-05-02T02:56:05.561Z,99885.77
2018-05-02T02:58:33.068Z,99887.33
2018-05-02T03:01:00.522Z,99885.80
2018-05-02T03:03:27.969Z,99895.28
2018-05-02T03:05:55.450Z,99894.45
2018-05-02T03:08:22.907Z,99893.11
2018-05-02T03:10:50.397Z,99897.48
2018-05-02T03:13:17.845Z,99902.81
2018-05-02T03:15:45.317Z,99890.97
2018-05-02T03:18:12.765Z,99891.86
2018-05-02T03:20:40.237Z,99894.06
2018-05-02T03:23:07.692Z,99892.31
2018-05-02T03:25:35.164Z,99897.73
2018-05-02T03:28:02.610Z,99895.46
2018-05-02T03:30:30.093Z,99892.78
2018-05-02T03:32:57.537Z,99894.03
2018-05-02T03:35:25.012Z,99894.95
2018-05-02T03:37:52.471Z,99887.61
2018-05-02T03:40:19.954Z,99888.44
2018-05-02T03:42:47.410Z,99895.37
2018-05-02T03:45:14.886Z,99898.05
2018-05-02T03:47:42.341Z,99898.59
2018-05-02T03:50:09.843Z,99900.64
2018-05-02T03:52:37.306Z,99896.52
2018-05-02T03:55:04.777Z,99899.81
2018-05-02T03:57:32.226Z,99900.35
2018-05-02T04:00:11.718Z,99900.55
2018-05-02T04:02:50.930Z,99895.50
2018-05-02T04:05:30.107Z,99891.89
2018-05-02T04:07:57.562Z,99891.26
2018-05-02T04:10:25.034Z,99891.77
2018-05-02T04:12:52.477Z,99891.16
2018-05-02T04:15:19.957Z,99891.54
2018-05-02T04:17:47.413Z,99904.34
2018-05-02T04:20:14.898Z,99901.20
2018-05-02T04:22:42.345Z,99901.95
2018-05-02T04:25:09.846Z,99901.91
2018-05-02T04:27:37.302Z,99902.03
2018-05-02T04:30:04.786Z,99897.13
2018-05-02T04:32:32.233Z,99903.87
2018-05-02T04:34:59.714Z,99903.11
2018-05-02T04:37:27.169Z,99905.49
2018-05-02T04:39:54.653Z,99910.13
2018-05-02T04:42:22.115Z,99913.02
2018-05-02T04:44:49.585Z,99924.59
2018-05-02T04:47:17.033Z,99924.61
2018-05-02T04:49:44.510Z,99926.41
2018-05-02T04:55:17.432Z,99926.80
2018-05-02T04:57:44.822Z,99932.83
2018-05-02T05:00:12.299Z,99929.91
2018-05-02T05:02:39.762Z,99934.83
2018-05-02T05:05:07.244Z,99939.05
2018-05-02T05:07:34.700Z,99941.76
2018-05-02T05:10:02.175Z,99949.73
2018-05-02T05:12:29.632Z,99939.17
2018-05-02T05:14:57.106Z,99941.34
2018-05-02T05:17:24.606Z,99946.75
2018-05-02T05:19:52.098Z,99938.58
2018-05-02T05:22:19.550Z,99940.92
2018-05-02T05:24:47.000Z,99946.66
2018-05-02T05:27:14.491Z,99943.11
2018-05-02T05:29:41.945Z,99952.42
2018-05-02T05:32:09.437Z,99951.05
2018-05-02T05:34:36.894Z,99952.50
2018-05-02T05:37:04.371Z,99954.38
2018-05-02T05:39:31.821Z,99961.42
2018-05-02T05:41:59.299Z,99960.59
2018-05-02T05:44:26.745Z,99955.43
2018-05-02T05:46:54.231Z,99954.28
2018-05-02T05:49:21.687Z,99949.52
2018-05-02T05:51:49.160Z,99950.23
2018-05-02T05:54:16.628Z,99950.05
2018-05-02T05:56:44.101Z,99948.17
2018-05-02T05:59:11.554Z,99946.47
2018-05-02T06:01:39.034Z,99946.65
2018-05-02T06:04:06.494Z,99944.99
2018-05-02T06:06:33.982Z,99945.69
2018-05-02T06:09:02.285Z,99947.09
2018-05-02T06:11:29.762Z,99946.66
2018-05-02T06:13:57.221Z,99938.43
2018-05-02T06:16:24.713Z,99941.63
2018-05-02T06:18:52.252Z,99941.05
2018-05-02T06:21:19.678Z,99938.14
2018-05-02T06:23:47.130Z,99942.90
2018-05-02T06:26:14.895Z,99948.26
2018-05-02T06:28:42.338Z,99940.90
2018-05-02T06:31:09.814Z,99940.88
2018-05-02T06:33:37.279Z,99946.86
2018-05-02T06:36:04.759Z,99951.78
2018-05-02T06:38:32.209Z,99955.45
2018-05-02T06:41:00.238Z,99958.27
2018-05-02T06:43:27.785Z,99953.02
2018-05-02T06:45:55.204Z,99956.63
2018-05-02T06:48:22.659Z,99950.63
2018-05-02T06:50:50.154Z,99951.52
2018-05-02T06:53:17.622Z,99947.98
2018-05-02T06:55:45.118Z,99945.39
2018-05-02T06:58:12.582Z,99952.68
2018-05-02T07:00:40.039Z,99948.31
2018-05-02T07:03:07.517Z,99945.98
2018-05-02T07:05:34.975Z,99941.96
2018-05-02T07:08:02.454Z,99947.31
2018-05-02T07:10:29.914Z,99944.91
2018-05-02T07:12:57.418Z,99950.31
2018-05-02T07:15:24.875Z,99949.54
2018-05-02T07:17:52.357Z,99949.30
2018-05-02T07:20:19.818Z,99947.80
2018-05-02T07:25:20.993Z,99936.84
2018-05-02T07:27:48.469Z,99936.29
2018-05-02T07:30:15.933Z,99942.52
2018-05-02T07:32:43.538Z,99944.72
2018-05-02T07:35:10.967Z,99937.27
2018-05-02T07:37:38.453Z,99930.22
2018-05-02T07:40:05.922Z,99934.56
2018-05-02T07:42:33.393Z,99930.50
2018-05-02T07:45:00.854Z,99931.45
2018-05-02T07:47:28.334Z,99921.55
2018-05-02T07:49:55.789Z,99923.71
2018-05-02T07:52:23.269Z,99920.58
2018-05-02T07:54:50.729Z,99921.00
2018-05-02T07:57:18.201Z,99935.14
2018-05-02T07:59:45.665Z,99932.70
2018-05-02T08:02:13.151Z,99920.14
2018-05-02T08:04:40.606Z,99919.59
2018-05-02T08:07:08.076Z,99922.13
2018-05-02T08:09:35.566Z,99913.69
2018-05-02T08:12:03.050Z,99911.08
2018-05-02T08:14:30.501Z,99907.20
2018-05-02T08:16:57.989Z,99894.67
2018-05-02T08:19:25.442Z,99884.54
2018-05-02T08:21:52.917Z,99880.59
2018-05-02T08:24:20.576Z,99878.07
2018-05-02T08:26:48.006Z,99870.37
2018-05-02T08:29:15.470Z,99868.60
2018-05-02T08:31:42.945Z,99873.27
2018-05-02T08:34:10.447Z,99866.12
2018-05-02T08:36:37.912Z,99865.59
2018-05-02T08:39:05.388Z,99859.48
2018-05-02T08:41:32.846Z,99860.62
2018-05-02T08:44:00.321Z,99853.05
2018-05-02T08:46:27.784Z,99851.34
2018-05-02T08:48:55.308Z,99847.64
2018-05-02T08:51:22.770Z,99844.80
2018-05-02T08:53:50.253Z,99835.27
2018-05-02T08:56:17.704Z,99841.14
2018-05-02T08:58:45.193Z,99840.28
2018-05-02T09:01:12.655Z,99842.98
2018-05-02T09:03:40.173Z,99841.92
2018-05-02T09:06:07.933Z,99842.95
2018-05-02T09:08:35.482Z,99838.34
2018-05-02T09:11:02.936Z,99843.84
2018-05-02T09:13:30.419Z,99838.44
2018-05-02T09:15:57.876Z,99846.80
2018-05-02T09:18:25.348Z,99833.67
2018-05-02T09:20:52.823Z,99833.50
2018-05-02T09:23:20.314Z,99826.00
2018-05-02T09:33:47.618Z,99816.98
2018-05-02T09:36:15.118Z,99818.94
2018-05-02T09:38:42.597Z,99812.86
2018-05-02T09:41:10.054Z,99809.38
2018-05-02T09:43:37.534Z,99813.88
2018-05-02T09:46:04.987Z,99803.04
2018-05-02T09:48:32.469Z,99801.76
2018-05-02T09:50:59.930Z,99797.73
2018-05-02T09:53:28.329Z,99800.55
2018-05-02T09:55:55.794Z,99801.84
2018-05-02T09:58:23.266Z,99801.39
2018-05-02T10:00:50.726Z,99799.67
2018-05-02T10:03:18.857Z,99798.52
2018-05-02T10:05:46.313Z,99790.30
2018-05-02T10:08:13.790Z,99801.98
2018-05-02T10:10:41.249Z,99786.03
2018-05-02T10:13:08.734Z,99791.25
2018-05-02T10:15:36.200Z,99784.62
2018-05-02T10:18:03.692Z,99775.80
2018-05-02T10:20:31.163Z,99771.58
2018-05-02T10:22:58.662Z,99773.67
2018-05-02T10:25:26.120Z,99778.16
2018-05-02T10:27:53.601Z,99780.37
2018-05-02T10:30:21.054Z,99782.91
2018-05-02T10:32:48.545Z,99776.95
2018-05-02T10:35:16.034Z,99779.34
2018-05-02T10:37:43.496Z,99771.66
2018-05-02T10:40:10.985Z,99773.91
2018-05-02T10:42:38.442Z,99769.22
2018-05-02T10:45:05.921Z,99771.25
2018-05-02T10:47:33.382Z,99768.28
2018-05-02T10:50:00.889Z,99751.50
2018-05-02T10:52:28.345Z,99756.61
2018-05-02T10:54:56.671Z,99757.08
2018-05-02T10:57:24.131Z,99755.30
2018-05-02T10:59:51.633Z,99746.67
2018-05-02T11:02:19.094Z,99743.69
2018-05-02T11:04:46.582Z,99739.49
2018-05-02T11:07:14.051Z,99746.41
2018-05-02T11:09:41.532Z,99734.66
2018-05-02T11:12:08.981Z,99734.45
2018-05-02T11:14:36.457Z,99736.63
2018-05-02T11:17:03.923Z,99734.96
2018-05-02T11:19:31.449Z,99732.77
2018-05-02T11:21:58.958Z,99731.53
2018-05-02T11:24:26.399Z,99735.67
2018-05-02T11:26:53.867Z,99727.59
2018-05-02T11:29:21.354Z,99721.59
2018-05-02T11:31:48.818Z,99722.09
2018-05-02T11:34:16.293Z,99715.30
2018-05-02T11:36:43.815Z,99718.77
2018-05-02T11:39:11.290Z,99715.41
2018-05-02T11:41:38.746Z,99714.13
2018-05-02T11:44:06.230Z,99715.16
2018-05-02T11:46:33.684Z,99704.14
2018-05-02T11:49:01.222Z,99700.61
2018-05-02T11:51:28.682Z,99705.77
2018-05-02T11:53:56.167Z,99704.55
2018-05-02T11:56:23.633Z,99705.45
2018-05-02T11:58:51.121Z,99701.44
2018-05-02T12:01:18.571Z,99693.37
2018-05-02T12:03:46.045Z,99688.83
2018-05-02T12:06:13.510Z,99690.95
2018-05-02T12:08:40.980Z,99695.29
2018-05-02T12:11:08.457Z,99693.14
2018-05-02T12:13:35.905Z,99701.03
2018-05-02T12:16:03.388Z,99696.25
2018-05-02T12:18:30.842Z,99685.99
2018-05-02T12:20:58.328Z,99687.78
2018-05-02T12:23:25.813Z,99685.66
2018-05-02T12:25:53.297Z,99685.42
2018-05-02T12:28:20.754Z,99681.22
2018-05-02T12:30:48.242Z,99680.42
2018-05-02T12:33:15.703Z,99678.73
2018-05-02T12:35:43.193Z,99673.97
2018-05-02T12:38:11.862Z,99677.59
2018-05-02T12:40:39.378Z,99667.81
2018-05-02T12:43:06.828Z,99667.59
2018-05-02T12:45:34.312Z,99660.59
2018-05-02T12:48:01.769Z,99658.27
2018-05-02T12:50:29.255Z,99651.19
2018-05-02T12:52:56.717Z,99644.28
2018-05-02T12:55:24.287Z,99639.84
2018-05-02T12:57:52.622Z,99638.09
2018-05-02T13:00:20.105Z,99634.12
2018-05-02T13:02:47.569Z,99635.67
2018-05-02T13:05:15.046Z,99631.02
2018-05-02T13:07:42.501Z,99626.36
2018-05-02T13:10:09.977Z,99622.42
2018-05-02T13:12:37.438Z,99619.05
2018-05-02T13:15:04.980Z,99615.52
2018-05-02T13:17:32.441Z,99614.48
2018-05-02T13:19:59.928Z,99608.34
2018-05-02T13:22:27.383Z,99609.25
2018-05-02T13:24:54.868Z,99609.25
2018-05-02T13:27:22.339Z,99609.86
2018-05-02T13:29:49.821Z,99608.99
2018-05-02T13:32:17.282Z,99603.42
2018-05-02T13:34:44.769Z,99604.72
2018-05-02T13:37:12.230Z,99611.03
2018-05-02T13:39:39.709Z,99606.91
2018-05-02T13:42:07.168Z,99598.36
2018-05-02T13:44:34.627Z,99595.68
2018-05-02T13:47:02.110Z,99600.59
2018-05-02T13:49:29.563Z,99593.88
2018-05-02T13:51:57.068Z,99580.77
2018-05-02T13:54:24.530Z,99586.55
2018-05-02T13:56:52.013Z,99582.44
2018-05-02T13:59:19.465Z,99584.92
2018-05-02T14:01:46.971Z,99584.69
2018-05-02T14:04:14.435Z,99568.62
2018-05-02T14:06:41.916Z,99576.54
2018-05-02T14:09:09.370Z,99570.42
2018-05-02T14:11:36.851Z,99568.81
2018-05-02T14:14:04.310Z,99566.95
2018-05-02T14:16:31.796Z,99560.91
2018-05-02T14:18:59.262Z,99557.66
2018-05-02T14:21:26.746Z,99565.08
2018-05-02T14:23:54.221Z,99564.95
2018-05-02T14:26:21.705Z,99558.80
2018-05-02T14:28:49.167Z,99555.95
2018-05-02T14:31:16.650Z,99562.08
2018-05-02T14:33:44.115Z,99565.36
2018-05-02T14:36:11.594Z,99562.67
2018-05-02T14:38:39.067Z,99559.89
2018-05-02T14:41:06.553Z,99564.81
2018-05-02T14:43:34.014Z,99562.62
2018-05-02T14:46:01.517Z,99561.92
2018-05-02T14:48:28.975Z,99570.98
2018-05-02T14:50:56.488Z,99565.55
2018-05-02T14:53:23.999Z,99561.53
2018-05-02T14:55:51.529Z,99566.08
2018-05-02T14:58:19.033Z,99568.88
2018-05-02T15:00:46.554Z,99562.39
2018-05-02T15:03:14.063Z,99563.47
2018-05-02T15:05:41.819Z,99568.75
2018-05-02T15:08:09.365Z,99567.97
2018-05-02T15:10:36.902Z,99573.02
2018-05-02T15:13:04.432Z,99564.19
2018-05-02T15:15:31.972Z,99567.30
2018-05-02T15:17:59.562Z,99566.30
2018-05-02T15:20:27.014Z,99571.11
2018-05-02T15:22:54.645Z,99560.59
2018-05-02T15:25:22.202Z,99556.56
2018-05-02T15:27:49.692Z,99555.99
2018-05-02T15:30:17.293Z,99556.11
2018-05-02T15:32:44.821Z,99556.06
2018-05-02T15:35:12.402Z,99560.96
2018-05-02T15:37:39.927Z,99555.19
2018-05-02T15:40:07.413Z,99551.53
2018-05-02T15:42:34.982Z,99558.90
2018-05-02T15:45:02.492Z,99557.41
2018-05-02T15:47:30.009Z,99555.55
2018-05-02T15:49:57.601Z,99551.86
2018-05-02T15:52:25.118Z,99548.94
2018-05-02T15:54:52.700Z,99549.60
2018-05-02T15:57:20.208Z,99549.27
2018-05-02T15:59:47.680Z,99550.66
2018-05-02T16:02:15.198Z,99539.64
2018-05-02T16:04:42.698Z,99539.66
2018-05-02T16:07:10.285Z,99542.16
2018-05-02T16:09:37.806Z,99541.22
2018-05-02T16:12:05.376Z,99541.22
2018-05-02T16:14:32.874Z,99538.42
2018-05-02T16:17:00.408Z,99536.71
2018-05-02T16:19:27.907Z,99537.46
2018-05-02T16:21:55.527Z,99535.05
2018-05-02T16:24:23.035Z,99540.54
2018-05-02T16:26:50.567Z,99535.83
2018-05-02T16:29:18.066Z,99544.83
2018-05-02T16:31:45.639Z,99544.67
2018-05-02T16:34:13.178Z,99545.63
2018-05-02T16:39:12.370Z,99542.14
2018-05-02T16:44:11.542Z,99541.25
2018-05-02T16:46:39.060Z,99541.52
2018-05-02T16:49:06.533Z,99543.67
2018-05-02T16:51:34.280Z,99545.88
2018-05-02T16:54:01.871Z,99546.66
2018-05-02T16:56:29.444Z,99545.68
2018-05-02T16:58:57.031Z,99546.66
2018-05-02T17:01:24.564Z,99548.66
2018-05-02T17:03:52.102Z,99547.25
2018-05-02T17:06:22.576Z,99547.46
2018-05-02T17:08:50.138Z,99563.93
2018-05-02T17:11:17.794Z,99560.08
2018-05-02T17:13:45.218Z,99562.34
2018-05-02T17:16:12.686Z,99558.34
2018-05-02T17:18:40.238Z,99558.81
2018-05-02T17:21:07.732Z,99556.56
2018-05-02T17:23:35.466Z,99562.89
2018-05-02T17:26:06.881Z,99554.20
2018-05-02T17:28:34.492Z,99561.99
2018-05-02T17:31:02.019Z,99565.96
2018-05-02T17:33:29.570Z,99568.48
2018-05-02T17:35:57.150Z,99562.83
2018-05-02T17:38:24.711Z,99563.22
2018-05-02T17:40:52.258Z,99566.11
2018-05-02T17:43:19.733Z,99564.89
2018-05-02T17:45:47.290Z,99576.80
2018-05-02T17:48:14.846Z,99582.13
2018-05-02T17:50:42.318Z,99585.62
2018-05-02T17:53:09.857Z,99586.17
2018-05-02T17:55:37.764Z,99591.53
2018-05-02T17:58:05.317Z,99588.11
2018-05-02T18:00:32.818Z,99585.94
2018-05-02T18:03:00.386Z,99591.61
2018-05-02T18:05:28.030Z,99589.34
2018-05-02T18:07:55.499Z,99591.73
2018-05-02T18:10:23.023Z,99593.96
2018-05-02T18:12:50.501Z,99593.42
2018-05-02T18:15:18.269Z,99599.66
2018-05-02T18:17:45.805Z,99600.54
2018-05-02T18:20:13.395Z,99603.08
2018-05-02T18:22:40.926Z,99604.75
2018-05-02T18:25:08.693Z,99604.89
2018-05-02T18:27:36.198Z,99605.91
2018-05-02T18:30:03.954Z,99609.33
2018-05-02T18:32:31.466Z,99611.53
2018-05-02T18:34:58.955Z,99606.88
2018-05-02T18:37:26.447Z,99606.01
2018-05-02T18:39:54.059Z,99610.70
2018-05-02T18:42:21.586Z,99612.84
2018-05-02T18:44:49.154Z,99616.45
2018-05-02T18:47:16.646Z,99612.95
2018-05-02T18:49:44.173Z,99622.84
2018-05-02T18:52:11.642Z,99622.48
2018-05-02T18:54:39.159Z,99617.62
2018-05-02T18:57:07.385Z,99622.33
2018-05-02T18:59:34.898Z,99628.08
2018-05-02T19:02:02.367Z,99626.53
2018-05-02T19:04:29.879Z,99629.66
2018-05-02T19:06:57.394Z,99636.48
2018-05-02T19:09:24.987Z,99639.38
2018-05-02T19:11:52.503Z,99640.34
2018-05-02T19:14:20.014Z,99636.98
2018-05-02T19:16:47.514Z,99636.61
2018-05-02T19:19:20.609Z,99639.50
2018-05-02T19:21:48.522Z,99641.34
2018-05-02T19:24:16.053Z,99642.23
2018-05-02T19:26:43.673Z,99647.23
2018-05-02T19:29:11.197Z,99649.19
2018-05-02T19:31:44.310Z,99660.55
2018-05-02T19:34:11.928Z,99655.27
2018-05-02T19:36:39.432Z,99651.33
2018-05-02T19:39:07.912Z,99657.33
2018-05-02T19:41:40.893Z,99670.31
2018-05-02T19:44:08.928Z,99660.25
2018-05-02T19:46:36.514Z,99667.08
2018-05-02T19:49:04.054Z,99675.30
2018-05-02T19:51:37.110Z,99672.30
2018-05-02T19:54:04.696Z,99669.89
2018-05-02T19:56:32.184Z,99667.27
2018-05-02T19:58:59.702Z,99673.83
2018-05-02T20:01:32.693Z,99670.72
2018-05-02T20:04:00.275Z,99672.93
2018-05-02T20:06:27.865Z,99675.83
2018-05-02T20:09:01.006Z,99670.67
2018-05-02T20:11:33.990Z,99673.31
2018-05-02T20:14:05.423Z,99675.30
2018-05-02T20:16:32.942Z,99676.72
2018-05-02T20:19:00.489Z,99679.78
2018-05-02T20:21:28.014Z,99688.05
2018-05-02T20:23:55.546Z,99687.28
2018-05-02T20:26:23.260Z,99689.58
2018-05-02T20:28:50.778Z,99687.24
2018-05-02T20:31:18.949Z,99692.12
2018-05-02T20:33:46.469Z,99694.19
2018-05-02T20:36:14.058Z,99691.25
2018-05-02T20:38:41.579Z,99687.09
2018-05-02T20:41:09.290Z,99688.59
2018-05-02T20:43:37.132Z,99688.36
2018-05-02T20:46:04.707Z,99685.62
2018-05-02T20:48:32.200Z,99682.86
2018-05-02T20:50:59.783Z,99687.77
2018-05-02T20:53:27.307Z,99684.64
2018-05-02T20:55:54.932Z,99688.06
2018-05-02T20:58:22.850Z,99693.45
2018-05-02T21:00:50.404Z,99694.69
2018-05-02T21:03:17.909Z,99697.16
2018-05-02T21:05:45.512Z,99698.77
2018-05-02T21:08:13.104Z,99698.66
2018-05-02T21:10:40.757Z,99700.33
2018-05-02T21:13:08.269Z,99698.74
2018-05-02T21:15:35.858Z,99698.20
2018-05-02T21:18:03.397Z,99706.66
2018-05-02T21:20:31.011Z,99701.20
2018-05-02T21:22:58.542Z,99704.88
2018-05-02T21:25:26.090Z,99698.07
2018-05-02T21:27:53.675Z,99706.94
2018-05-02T21:30:21.242Z,99707.08
2018-05-02T21:32:48.743Z,99703.98
2018-05-02T21:35:16.273Z,99705.88
2018-05-02T21:37:43.857Z,99702.22
2018-05-02T21:40:11.394Z,99706.05
2018-05-02T21:42:38.915Z,99708.34
2018-05-02T21:45:06.435Z,99715.72
2018-05-02T21:47:33.937Z,99711.09
2018-05-02T21:50:01.689Z,99712.05
2018-05-02T21:52:29.184Z,99722.09
2018-05-02T21:54:56.746Z,99722.64
2018-05-02T21:57:24.229Z,99720.85
2018-05-02T21:59:51.987Z,99729.94
2018-05-02T22:02:19.546Z,99721.36
2018-05-02T22:04:47.077Z,99732.34
2018-05-02T22:07:14.557Z,99725.83
2018-05-02T22:09:42.267Z,99729.23
2018-05-02T22:12:09.789Z,99731.55
2018-05-02T22:14:37.332Z,99735.09
2018-05-02T22:17:04.862Z,99727.33
2018-05-02T22:19:32.389Z,99726.14
2018-05-02T22:24:35.833Z,99735.00
2018-05-02T22:27:03.394Z,99737.30
2018-05-02T22:29:30.869Z,99731.46
2018-05-02T22:31:58.424Z,99734.61
2018-05-02T22:34:26.003Z,99737.27
2018-05-02T22:36:53.497Z,99733.47
2018-05-02T22:39:21.010Z,99735.23
2018-05-02T22:41:48.566Z,99734.83
2018-05-02T22:44:16.074Z,99739.14
2018-05-02T22:46:43.607Z,99734.67
2018-05-02T22:49:11.124Z,99738.49
2018-05-02T22:51:38.631Z,99742.67
2018-05-02T22:54:06.147Z,99745.95
2018-05-02T22:56:33.755Z,99744.70
2018-05-02T22:59:01.252Z,99742.13
2018-05-02T23:01:28.844Z,99746.71
2018-05-02T23:03:57.453Z,99749.97
2018-05-02T23:06:24.966Z,99741.65
2018-05-02T23:08:52.518Z,99744.31
2018-05-02T23:11:20.109Z,99738.97
2018-05-02T23:13:47.625Z,99742.50
2018-05-02T23:16:15.957Z,99748.25
2018-05-02T23:18:43.511Z,99750.42
2018-05-02T23:21:11.030Z,99753.38
2018-05-02T23:23:38.539Z,99750.13
2018-05-02T23:26:06.167Z,99749.91
2018-05-02T23:28:33.662Z,99754.35
2018-05-02T23:31:01.192Z,99752.56
2018-05-02T23:33:28.710Z,99761.89
2018-05-02T23:35:56.266Z,99766.38
2018-05-02T23:38:23.757Z,99762.59
2018-05-02T23:40:51.298Z,99759.16
2018-05-02T23:43:18.825Z,99756.09
2018-05-02T23:45:46.364Z,99763.25
2018-05-02T23:48:13.862Z,99760.30
2018-05-02T23:50:41.404Z,99754.34
2018-05-02T23:53:08.897Z,99760.23
2018-05-02T23:55:36.414Z,99749.16
2018-05-02T23:58:03.890Z,99754.68
